Hathor — PHIY — position and weather

sailwx.info

Track history (hours):
 
Tides and Currents Weather Stations Pressure Air Temp Water Temp Dewpoint Dewpoint Depression Visibility Wind Speed Wind Dir Waves Ship Positions

Hathor

Last reported at 2018-Apr-24 15:58 UTC. Time now 2018-Apr-24 16:26 UTC.
Position N 47°17' W 002°12'.

Length 89 m; draft 5.6 m.

Type: Cargo ship. MMSI: 244176000.

Date/timePositionNaut miles runAvg speedWind from/ knotsBaromVisibWave heightAir tempDewpointWater temp
2018-Apr-24 15:58N 47°17' W 002°12'0 0.0
2018-Apr-24 15:28N 47°17' W 002°12'0 0.0
2018-Apr-24 14:58N 47°17' W 002°12'0 0.0
2018-Apr-24 14:28N 47°17' W 002°12'0 0.0
2018-Apr-24 13:58N 47°17' W 002°12'0 0.0
2018-Apr-24 13:28N 47°17' W 002°12'0 0.0
2018-Apr-24 12:55N 47°17' W 002°12'0 0.0
2018-Apr-24 12:28N 47°17' W 002°12'0 0.0
2018-Apr-24 11:58N 47°17' W 002°12'0 0.0
2018-Apr-24 11:28N 47°17' W 002°12'0 0.0
2018-Apr-24 10:58N 47°17' W 002°12'0 0.0
2018-Apr-24 10:28N 47°17' W 002°12'0 0.0
2018-Apr-24 09:58N 47°17' W 002°12'0 0.0
2018-Apr-24 09:28N 47°17' W 002°12'0 0.0
2018-Apr-24 08:58N 47°17' W 002°12'0 0.0
2018-Apr-24 08:28N 47°17' W 002°12'0 0.0
2018-Apr-24 07:58N 47°17' W 002°12'0 0.0
2018-Apr-24 07:28N 47°17' W 002°12'0 0.0
2018-Apr-24 06:58N 47°17' W 002°12'0 0.0
2018-Apr-24 06:28N 47°17' W 002°12'0 0.0
2018-Apr-24 05:58N 47°17' W 002°12'0 0.0
2018-Apr-24 05:28N 47°17' W 002°12'0 0.0
2018-Apr-24 04:58N 47°17' W 002°12'0 0.0
2018-Apr-24 04:28N 47°17' W 002°12'0 0.0
2018-Apr-24 03:58N 47°17' W 002°12'0 0.0
2018-Apr-24 03:28N 47°17' W 002°12'0 0.0
2018-Apr-24 02:58N 47°17' W 002°12'0 0.0
2018-Apr-24 02:28N 47°17' W 002°12'0 0.0
2018-Apr-24 01:58N 47°17' W 002°12'0 0.0
2018-Apr-24 01:28N 47°17' W 002°12'0 0.0
2018-Apr-24 00:58N 47°17' W 002°12'0 0.0
2018-Apr-24 00:28N 47°17' W 002°12'0 0.0
2018-Apr-23 23:58N 47°17' W 002°12'0 0.0
2018-Apr-23 23:28N 47°17' W 002°12'0 0.0
2018-Apr-23 22:58N 47°17' W 002°12'0 0.0
2018-Apr-23 22:28N 47°17' W 002°12'0 0.0
2018-Apr-23 21:58N 47°17' W 002°12'0 0.0
2018-Apr-23 21:28N 47°17' W 002°12'0 0.0
2018-Apr-23 20:58N 47°17' W 002°12'0 0.0
2018-Apr-23 20:28N 47°17' W 002°12'0 0.0
2018-Apr-23 19:58N 47°17' W 002°12'0 0.0
2018-Apr-23 19:28N 47°17' W 002°12'0 0.0
2018-Apr-23 18:58N 47°17' W 002°12'0 0.0
2018-Apr-23 18:22N 47°17' W 002°12'0 0.0
2018-Apr-23 17:58N 47°17' W 002°12'0 0.0
2018-Apr-23 17:25N 47°17' W 002°12'0 0.0
2018-Apr-23 16:52N 47°17' W 002°12'0 0.0
2018-Apr-23 16:28N 47°17' W 002°12'0 0.0
2018-Apr-23 15:55N 47°17' W 002°12'0 0.0
2018-Apr-23 15:22N 47°17' W 002°12'0 0.0
2018-Apr-23 14:52N 47°17' W 002°12'0 0.0
2018-Apr-23 14:27N 47°17' W 002°12'0 0.0
2018-Apr-23 13:57N 47°17' W 002°12'0 0.0
2018-Apr-23 13:24N 47°17' W 002°12'0 0.0
2018-Apr-23 12:57N 47°17' W 002°12'0 0.0
2018-Apr-23 12:30N 47°17' W 002°12'0 0.0
2018-Apr-23 12:00N 47°17' W 002°12'0 0.0
2018-Apr-23 11:27N 47°17' W 002°12'0 0.0
2018-Apr-23 10:20N 47°17' W 002°12'0 1.1
2018-Apr-23 09:56N 47°17' W 002°12'0 0.7
2018-Apr-23 09:30N 47°16' W 002°12'1 2.1
2018-Apr-23 09:00N 47°15' W 002°13'4 8.3
2018-Apr-23 08:30N 47°12' W 002°17'5 9.2
2018-Apr-23 08:00N 47°08' W 002°21'3 6.9
2018-Apr-23 07:30N 47°07' W 002°25'0 0.0
2018-Apr-23 06:58N 47°07' W 002°25'0 0.0
2018-Apr-23 06:28N 47°07' W 002°25'0 0.1
2018-Apr-23 05:58N 47°07' W 002°25'0 0.0
2018-Apr-23 05:28N 47°07' W 002°25'0 0.0
2018-Apr-23 04:58N 47°07' W 002°25'0 0.1
2018-Apr-23 04:28N 47°07' W 002°25'0 0.1
2018-Apr-23 03:58N 47°07' W 002°25'0 0.0
2018-Apr-23 03:28N 47°07' W 002°26'0 0.0
2018-Apr-23 02:58N 47°07' W 002°26'0 0.0
2018-Apr-23 02:28N 47°07' W 002°25'0 0.0
2018-Apr-23 01:58N 47°07' W 002°25'0 0.0
2018-Apr-23 01:28N 47°07' W 002°25'0 0.1
2018-Apr-23 01:00N 47°07' W 002°25'2 3.0
2018-Apr-23 00:30N 47°06' W 002°27'4 7.4
2018-Apr-23 00:00N 47°05' W 002°32'4 7.6
2018-Apr-22 23:30N 47°03' W 002°37'4 7.4
2018-Apr-22 23:00N 47°03' W 002°43'4 8.0
2018-Apr-22 22:30N 47°05' W 002°48'4 8.3
2018-Apr-22 22:00N 47°07' W 002°54'4 8.6
2018-Apr-22 21:30N 47°09' W 002°59'4 8.6
2018-Apr-22 21:00N 47°10' W 003°05'3 7.0
2018-Apr-22 20:30N 47°12' W 003°10'3 6.2
2018-Apr-22 20:00N 47°13' W 003°14'3 5.9
2018-Apr-22 19:30N 47°14' W 003°18'3 5.7
2018-Apr-22 19:00N 47°16' W 003°21'3 5.7
2018-Apr-22 18:30N 47°18' W 003°25'3 6.1
2018-Apr-22 18:00N 47°19' W 003°29'4 8.3
2018-Apr-22 17:30N 47°21' W 003°34'4 8.6
2018-Apr-22 17:00N 47°24' W 003°39'4 8.6
2018-Apr-22 16:30N 47°26' W 003°45'4 8.5
2018-Apr-22 16:00N 47°28' W 003°50'4 8.7
2018-Apr-22 15:30N 47°30' W 003°55'4 8.4
2018-Apr-22 15:00N 47°33' W 004°01'4 8.2
2018-Apr-22 14:30N 47°35' W 004°06'4 8.1
2018-Apr-22 14:00N 47°37' W 004°11'5 8.3
2018-Apr-22 13:24N 47°40' W 004°17'3 8.2
2018-Apr-22 13:00N 47°42' W 004°21'4 7.8
2018-Apr-22 12:27N 47°44' W 004°27'3 7.5
2018-Apr-22 12:00N 47°45' W 004°31'4 7.7
2018-Apr-22 11:30N 47°48' W 004°36'4 8.3
2018-Apr-22 11:00N 47°50' W 004°41'4 8.6
2018-Apr-22 10:30N 47°52' W 004°46'4 8.9
2018-Apr-22 10:00N 47°54' W 004°52'4 9.0
2018-Apr-22 09:30N 47°57' W 004°58'4 8.9
2018-Apr-22 09:00N 47°59' W 005°03'4 8.5
2018-Apr-22 08:30N 48°02' W 005°08'4 7.8
2018-Apr-22 08:00N 48°04' W 005°12'5 7.6
2018-Apr-22 07:22N 48°09' W 005°15'5 7.4
2018-Apr-22 06:40N 48°14' W 005°17'1 8.0
2018-Apr-22 06:29N 48°15' W 005°18'18 7.3
2018-Apr-22 04:03N 48°33' W 005°22'0 8.9
2018-Apr-22 04:00N 48°33' W 005°22'4 9.1
2018-Apr-22 03:30N 48°37' W 005°17'5 9.2
2018-Apr-22 02:59N 48°40' W 005°12'5 9.3
2018-Apr-22 02:30N 48°43' W 005°08'5 9.6
2018-Apr-22 02:00N 48°46' W 005°02'5 9.7
2018-Apr-22 01:30N 48°49' W 004°56'15 9.5
2018-Apr-21 23:56N 48°59' W 004°39'22 7.8
2018-Apr-21 21:03N 49°13' W 004°12'1 6.9
2018-Apr-21 20:56N 49°14' W 004°11'39 8.1
2018-Apr-21 16:07N 49°40' W 003°27'1 9.8
2018-Apr-21 16:00N 49°41' W 003°26'5 9.8
2018-Apr-21 15:30N 49°44' W 003°20'5 9.7
2018-Apr-21 14:59N 49°47' W 003°14'5 9.4
2018-Apr-21 14:30N 49°50' W 003°08'5 9.0
2018-Apr-21 14:00N 49°52' W 003°03'4 8.6
2018-Apr-21 13:30N 49°55' W 002°58'4 7.7
2018-Apr-21 13:00N 49°57' W 002°53'4 7.5
2018-Apr-21 12:29N 49°58' W 002°47'3 7.0
2018-Apr-21 12:00N 49°59' W 002°42'3 6.7
2018-Apr-21 11:30N 50°00' W 002°37'5 6.5
2018-Apr-21 10:46N 50°02' W 002°30'2 6.4
2018-Apr-21 10:30N 50°02' W 002°27'4 6.5
2018-Apr-21 09:57N 50°03' W 002°22'3 6.8
2018-Apr-21 09:30N 50°04' W 002°17'4 7.4
2018-Apr-21 08:59N 50°05' W 002°12'8 8.5
2018-Apr-21 08:02N 50°08' W 001°60'0 9.4
2018-Apr-21 08:00N 50°08' W 001°59'5 9.8
2018-Apr-21 07:30N 50°09' W 001°52'510.6
2018-Apr-21 07:00N 50°11' W 001°44'611.2
2018-Apr-21 06:30N 50°13' W 001°36'611.6
2018-Apr-21 06:00N 50°14' W 001°27'611.8
2018-Apr-21 05:30N 50°16' W 001°19'611.9
2018-Apr-21 04:59N 50°18' W 001°09'611.9
2018-Apr-21 04:30N 50°19' W 001°01'611.3
2018-Apr-21 04:01N 50°21' W 000°52'510.1
2018-Apr-21 03:30N 50°23' W 000°45'5 9.4
2018-Apr-21 03:00N 50°24' W 000°38'5 9.0
2018-Apr-21 02:30N 50°26' W 000°31'4 8.5
2018-Apr-21 02:00N 50°27' W 000°25'4 7.9
2018-Apr-21 01:30N 50°29' W 000°19'4 7.2
2018-Apr-21 01:00N 50°29' W 000°13'3 6.9
2018-Apr-21 00:30N 50°30' W 000°08'3 6.5
2018-Apr-21 00:00N 50°31' W 000°03'3 6.5
2018-Apr-20 23:30N 50°32' E 000°01'3 6.6
2018-Apr-20 23:00N 50°33' E 000°06'4 7.0
2018-Apr-20 22:30N 50°34' E 000°12'4 7.6
2018-Apr-20 22:00N 50°35' E 000°17'4 8.2
2018-Apr-20 21:30N 50°36' E 000°24'5 9.1
2018-Apr-20 21:00N 50°38' E 000°31'5 9.5
2018-Apr-20 20:30N 50°40' E 000°37'5 9.9
2018-Apr-20 20:00N 50°43' E 000°44'5 9.9
2018-Apr-20 19:30N 50°46' E 000°50'5 9.7
2018-Apr-20 19:00N 50°49' E 000°56'5 9.3
2018-Apr-20 18:30N 50°51' E 001°02'4 8.9
2018-Apr-20 18:00N 50°54' E 001°08'4 8.4
2018-Apr-20 17:30N 50°57' E 001°13'4 7.8
2018-Apr-20 17:00N 50°59' E 001°18'4 7.0
2018-Apr-20 16:30N 51°02' E 001°22'3 6.4
2018-Apr-20 16:00N 51°04' E 001°26'3 6.1
2018-Apr-20 15:30N 51°06' E 001°29'3 5.8
2018-Apr-20 15:00N 51°07' E 001°33'3 6.2
2018-Apr-20 14:30N 51°09' E 001°37'3 6.8
2018-Apr-20 14:00N 51°12' E 001°41'4 7.3
2018-Apr-20 13:30N 51°14' E 001°45'5 9.3
2018-Apr-20 13:00N 51°18' E 001°48'510.4
2018-Apr-20 12:30N 51°23' E 001°51'611.2
2018-Apr-20 12:00N 51°28' E 001°56'611.6
2018-Apr-20 11:30N 51°32' E 002°03'611.4
2018-Apr-20 11:00N 51°36' E 002°09'611.6
2018-Apr-20 10:30N 51°40' E 002°16'611.2
2018-Apr-20 10:00N 51°44' E 002°22'510.6
2018-Apr-20 09:30N 51°48' E 002°28'510.1
2018-Apr-20 08:59N 51°52' E 002°34'5 9.4
2018-Apr-20 08:29N 51°56' E 002°39'4 8.9
2018-Apr-20 08:00N 51°59' E 002°43'4 8.5
2018-Apr-20 07:29N 52°02' E 002°48'4 8.2
2018-Apr-20 06:56N 52°05' E 002°53'3 7.9
2018-Apr-20 06:30N 52°08' E 002°57'14 7.1
2018-Apr-20 04:32N 52°15' E 003°16'1 7.2
2018-Apr-20 04:26N 52°16' E 003°17'8 7.4
2018-Apr-20 03:18N 52°19' E 003°30'3 8.1
2018-Apr-20 02:58N 52°20' E 003°34'4 8.6
2018-Apr-20 02:30N 52°21' E 003°40'4 9.1
2018-Apr-20 02:00N 52°23' E 003°47'4 8.9
2018-Apr-20 01:30N 52°24' E 003°54'5 9.3
2018-Apr-20 01:00N 52°25' E 004°02'5 9.5
2018-Apr-20 00:30N 52°26' E 004°09'5 9.4
2018-Apr-20 00:00N 52°27' E 004°16'4 8.8
2018-Apr-19 23:30N 52°27' E 004°24'4 8.8
2018-Apr-19 23:00N 52°28' E 004°31'3 6.9
2018-Apr-19 22:30N 52°28' E 004°36'0 0.0
2018-Apr-19 22:00N 52°28' E 004°36'0 0.0
2018-Apr-19 21:30N 52°28' E 004°36'0 0.0
2018-Apr-19 21:00N 52°28' E 004°36'0 0.0
2018-Apr-19 20:30N 52°28' E 004°36'0 0.0
2018-Apr-19 20:00N 52°28' E 004°36'0 0.0
2018-Apr-19 19:30N 52°28' E 004°36'0 0.0
2018-Apr-19 19:00N 52°28' E 004°36'0 0.0
2018-Apr-19 18:30N 52°28' E 004°36'0 0.0
2018-Apr-19 17:30N 52°28' E 004°36'0 0.0
2018-Apr-19 17:00N 52°28' E 004°36'0 0.0
2018-Apr-19 16:30N 52°28' E 004°36'0 0.0
2018-Apr-19 15:59N 52°28' E 004°36'0 0.0
2018-Apr-19 15:30N 52°28' E 004°36'0 0.0
2018-Apr-19 15:00N 52°28' E 004°36'0 0.0
2018-Apr-19 14:30N 52°28' E 004°36'0 0.0
2018-Apr-19 14:00N 52°28' E 004°36'0 0.0
2018-Apr-19 13:30N 52°28' E 004°36'0 0.0
2018-Apr-19 13:00N 52°28' E 004°36'0 0.0
2018-Apr-19 12:30N 52°28' E 004°36'0 0.0
2018-Apr-19 11:30N 52°28' E 004°36'0 0.0
2018-Apr-19 11:00N 52°28' E 004°36'0 0.0
2018-Apr-19 10:30N 52°28' E 004°36'0 0.0
2018-Apr-19 10:00N 52°28' E 004°36'0 0.0
2018-Apr-19 09:30N 52°28' E 004°36'0 0.0
2018-Apr-19 09:00N 52°28' E 004°36'0 0.0
2018-Apr-19 08:30N 52°28' E 004°36'0 0.0
2018-Apr-19 08:00N 52°28' E 004°36'0 0.0
2018-Apr-19 07:30N 52°28' E 004°36'0 0.0
2018-Apr-19 07:00N 52°28' E 004°36'0 0.0
2018-Apr-19 06:30N 52°28' E 004°36'0 0.0
2018-Apr-19 06:00N 52°28' E 004°36'0 0.0
2018-Apr-19 05:30N 52°28' E 004°36'0 0.0
2018-Apr-19 05:00N 52°28' E 004°36'0 0.0
2018-Apr-19 04:30N 52°28' E 004°36'0 0.0
2018-Apr-19 04:00N 52°28' E 004°36'0 0.0
2018-Apr-19 03:30N 52°28' E 004°36'0 0.0
2018-Apr-19 03:00N 52°28' E 004°36'1 2.0
2018-Apr-19 02:30N 52°28' E 004°35'510.0
2018-Apr-19 02:00N 52°28' E 004°27'4 8.3
2018-Apr-19 01:30N 52°28' E 004°20'3 6.4
2018-Apr-19 01:01N 52°27' E 004°15'3 6.0
2018-Apr-19 00:30N 52°27' E 004°10'3 5.9
2018-Apr-19 00:00N 52°26' E 004°05'3 5.7
2018-Apr-18 23:30N 52°25' E 004°01'3 5.6
2018-Apr-18 23:00N 52°24' E 003°56'3 5.7
2018-Apr-18 22:30N 52°24' E 003°52'4 7.7
2018-Apr-18 22:00N 52°23' E 003°46'5 9.4
2018-Apr-18 21:31N 52°20' E 003°40'5 9.4
2018-Apr-18 21:00N 52°16' E 003°36'5 9.6
2018-Apr-18 20:30N 52°12' E 003°32'610.1
2018-Apr-18 19:57N 52°07' E 003°27'510.3
2018-Apr-18 19:30N 52°02' E 003°24'611.1
2018-Apr-18 18:59N 51°57' E 003°23'611.2
2018-Apr-18 18:29N 51°51' E 003°20'611.6
2018-Apr-18 18:00N 51°46' E 003°17'510.4
2018-Apr-18 17:30N 51°41' E 003°19'612.0
2018-Apr-18 17:00N 51°36' E 003°24'612.5
2018-Apr-18 16:30N 51°30' E 003°28'611.8
2018-Apr-18 16:00N 51°26' E 003°35'5 9.6
2018-Apr-18 15:30N 51°25' E 003°42'5 9.4
2018-Apr-18 15:00N 51°23' E 003°49'3 6.6
2018-Apr-18 14:30N 51°23' E 003°54'4 8.2
2018-Apr-18 14:00N 51°27' E 003°57'4 9.0
2018-Apr-18 13:30N 51°25' E 004°03'4 7.8
2018-Apr-18 13:00N 51°23' E 004°09'4 7.6
2018-Apr-18 12:30N 51°21' E 004°14'4 8.7
2018-Apr-18 12:00N 51°18' E 004°18'4 7.4
2018-Apr-18 11:30N 51°14' E 004°21'3 6.3
2018-Apr-18 11:00N 51°11' E 004°20'4 9.0
2018-Apr-18 10:30N 51°07' E 004°18'1 2.2
2018-Apr-18 10:00N 51°06' E 004°19'0 0.0
2018-Apr-18 05:42N 51°06' E 004°19'0 0.0
2018-Apr-18 05:12N 51°06' E 004°19'0 0.0
2018-Apr-18 04:54N 51°06' E 004°19'0 0.0
2018-Apr-18 04:30N 51°06' E 004°19'0 0.0
2018-Apr-18 04:00N 51°06' E 004°19'0 0.0
2018-Apr-18 03:27N 51°06' E 004°19'0 0.0
2018-Apr-18 02:57N 51°06' E 004°19'0 0.0
2018-Apr-18 02:30N 51°06' E 004°19'0 0.0
2018-Apr-18 01:57N 51°06' E 004°19'0 0.0
2018-Apr-18 01:29N 51°06' E 004°19'0 0.0
2018-Apr-18 00:47N 51°06' E 004°19'0 0.0
2018-Apr-18 00:29N 51°06' E 004°19'0 0.0
2018-Apr-17 23:44N 51°06' E 004°19'0 0.0
2018-Apr-17 23:26N 51°06' E 004°19'0 0.0
2018-Apr-17 22:59N 51°06' E 004°19'0 0.0
2018-Apr-17 22:26N 51°06' E 004°19'0 0.0
2018-Apr-17 21:59N 51°06' E 004°19'0 0.0
2018-Apr-17 21:29N 51°06' E 004°19'0 0.0
2018-Apr-17 20:59N 51°06' E 004°19'0 0.0
2018-Apr-17 20:26N 51°06' E 004°19'0 0.0
2018-Apr-17 19:50N 51°06' E 004°19'0 0.0
2018-Apr-17 19:11N 51°06' E 004°19'0 0.0
2018-Apr-17 18:59N 51°06' E 004°19'0 0.0
2018-Apr-17 18:26N 51°06' E 004°19'0 0.0
2018-Apr-17 17:47N 51°06' E 004°19'0 0.0
2018-Apr-17 17:26N 51°06' E 004°19'0 0.0
2018-Apr-17 16:59N 51°06' E 004°19'0 0.0
2018-Apr-17 16:23N 51°06' E 004°19'0 0.0
2018-Apr-17 15:59N 51°06' E 004°19'0 0.0
2018-Apr-17 15:14N 51°06' E 004°19'0 0.0
2018-Apr-17 14:56N 51°06' E 004°19'0 0.0
2018-Apr-17 14:26N 51°06' E 004°19'0 0.0
2018-Apr-17 13:56N 51°06' E 004°19'0 0.0
2018-Apr-17 13:20N 51°06' E 004°19'1 1.8
2018-Apr-17 13:00N 51°06' E 004°20'2 4.0
2018-Apr-17 12:30N 51°04' E 004°22'5 2.5
2018-Apr-17 10:40N 50°60' E 004°23'0 0.0
2018-Apr-16 01:51N 50°59' E 004°23'3 2.1
2018-Apr-16 00:39N 51°02' E 004°21'1 5.4
2018-Apr-16 00:30N 51°03' E 004°22'2 3.7
2018-Apr-16 00:00N 51°04' E 004°22'3 5.5
2018-Apr-15 23:30N 51°06' E 004°19'1 2.0
2018-Apr-15 23:00N 51°07' E 004°18'4 8.2
2018-Apr-15 22:30N 51°11' E 004°20'4 7.8
2018-Apr-15 22:00N 51°14' E 004°24'4 7.4
2018-Apr-15 21:31N 51°15' E 004°18'3 6.1
2018-Apr-15 21:00N 51°18' E 004°17'4 7.5
2018-Apr-15 20:30N 51°21' E 004°14'3 5.9
2018-Apr-15 20:00N 51°23' E 004°10'3 6.5
2018-Apr-15 19:30N 51°22' E 004°06'3 5.9
2018-Apr-15 19:00N 51°24' E 004°02'3 5.6
2018-Apr-15 18:30N 51°26' E 003°59'4 7.0
2018-Apr-15 18:00N 51°23' E 003°57'3 5.9
2018-Apr-15 17:30N 51°21' E 003°53'3 5.6
2018-Apr-15 17:00N 51°21' E 003°48'3 6.0
2018-Apr-15 16:30N 51°22' E 003°44'3 6.5
2018-Apr-15 16:00N 51°25' E 003°41'3 6.7
2018-Apr-15 15:30N 51°25' E 003°35'4 7.9
2018-Apr-15 15:00N 51°25' E 003°29'5 9.5
2018-Apr-15 14:30N 51°24' E 003°21'5 9.9
2018-Apr-15 14:00N 51°24' E 003°13'510.3
2018-Apr-15 13:30N 51°24' E 003°05'510.9
2018-Apr-15 13:00N 51°23' E 002°57'611.2
2018-Apr-15 12:30N 51°22' E 002°48'510.0
2018-Apr-15 12:00N 51°22' E 002°40'610.8
2018-Apr-15 11:29N 51°22' E 002°31'511.0
2018-Apr-15 11:00N 51°20' E 002°23'510.8
2018-Apr-15 10:30N 51°17' E 002°16'510.4
2018-Apr-15 10:01N 51°14' E 002°09'5 9.9
2018-Apr-15 09:30N 51°12' E 002°02'5 9.1
2018-Apr-15 09:00N 51°09' E 001°56'4 8.3
2018-Apr-15 08:30N 51°07' E 001°50'4 7.6
2018-Apr-15 08:00N 51°05' E 001°45'4 7.4
2018-Apr-15 07:30N 51°02' E 001°41'4 7.0
2018-Apr-15 06:59N 50°59' E 001°38'38 7.4
2018-Apr-15 01:52N 50°31' E 000°58'4 8.6
2018-Apr-15 01:22N 50°30' E 000°51'4 8.5
2018-Apr-15 00:51N 50°29' E 000°45'16 8.6
2018-Apr-14 23:01N 50°25' E 000°21'0 8.8
2018-Apr-14 23:00N 50°25' E 000°20'5 9.2
2018-Apr-14 22:30N 50°23' E 000°13'5 9.7
2018-Apr-14 21:57N 50°22' E 000°05'4 9.9
2018-Apr-14 21:30N 50°21' W 000°01'710.7
2018-Apr-14 20:50N 50°18' W 000°12'411.2
2018-Apr-14 20:29N 50°17' W 000°18'511.6
2018-Apr-14 20:00N 50°16' W 000°26'611.8
2018-Apr-14 19:30N 50°14' W 000°35'611.7
2018-Apr-14 19:00N 50°12' W 000°44'611.7
2018-Apr-14 18:30N 50°10' W 000°52'611.2
2018-Apr-14 17:58N 50°08' W 001°01'510.8
2018-Apr-14 17:30N 50°07' W 001°09'510.2
2018-Apr-14 17:00N 50°06' W 001°16'5 9.5
2018-Apr-14 16:30N 50°04' W 001°23'4 8.7
2018-Apr-14 16:00N 50°03' W 001°30'  
Track history (hours):
 
Tides and Currents Weather Stations Pressure Air Temp Water Temp Dewpoint Dewpoint Depression Visibility Wind Speed Wind Dir Waves Ship Positions

Hathor

Last reported at 2018-Apr-24 15:58 UTC. Time now 2018-Apr-24 16:26 UTC.
Position N 47°17' W 002°12'.

Length 89 m; draft 5.6 m.

Type: Cargo ship. MMSI: 244176000.

Date/timePositionNaut miles runAvg speedWind from/ knotsBaromVisibWave heightAir tempDewpointWater temp
2018-Apr-24 15:58N 47°17' W 002°12'0 0.0
2018-Apr-24 15:28N 47°17' W 002°12'0 0.0
2018-Apr-24 14:58N 47°17' W 002°12'0 0.0
2018-Apr-24 14:28N 47°17' W 002°12'0 0.0
2018-Apr-24 13:58N 47°17' W 002°12'0 0.0
2018-Apr-24 13:28N 47°17' W 002°12'0 0.0
2018-Apr-24 12:55N 47°17' W 002°12'0 0.0
2018-Apr-24 12:28N 47°17' W 002°12'0 0.0
2018-Apr-24 11:58N 47°17' W 002°12'0 0.0
2018-Apr-24 11:28N 47°17' W 002°12'0 0.0
2018-Apr-24 10:58N 47°17' W 002°12'0 0.0
2018-Apr-24 10:28N 47°17' W 002°12'0 0.0
2018-Apr-24 09:58N 47°17' W 002°12'0 0.0
2018-Apr-24 09:28N 47°17' W 002°12'0 0.0
2018-Apr-24 08:58N 47°17' W 002°12'0 0.0
2018-Apr-24 08:28N 47°17' W 002°12'0 0.0
2018-Apr-24 07:58N 47°17' W 002°12'0 0.0
2018-Apr-24 07:28N 47°17' W 002°12'0 0.0
2018-Apr-24 06:58N 47°17' W 002°12'0 0.0
2018-Apr-24 06:28N 47°17' W 002°12'0 0.0
2018-Apr-24 05:58N 47°17' W 002°12'0 0.0
2018-Apr-24 05:28N 47°17' W 002°12'0 0.0
2018-Apr-24 04:58N 47°17' W 002°12'0 0.0
2018-Apr-24 04:28N 47°17' W 002°12'0 0.0
2018-Apr-24 03:58N 47°17' W 002°12'0 0.0
2018-Apr-24 03:28N 47°17' W 002°12'0 0.0
2018-Apr-24 02:58N 47°17' W 002°12'0 0.0
2018-Apr-24 02:28N 47°17' W 002°12'0 0.0
2018-Apr-24 01:58N 47°17' W 002°12'0 0.0
2018-Apr-24 01:28N 47°17' W 002°12'0 0.0
2018-Apr-24 00:58N 47°17' W 002°12'0 0.0
2018-Apr-24 00:28N 47°17' W 002°12'0 0.0
2018-Apr-23 23:58N 47°17' W 002°12'0 0.0
2018-Apr-23 23:28N 47°17' W 002°12'0 0.0
2018-Apr-23 22:58N 47°17' W 002°12'0 0.0
2018-Apr-23 22:28N 47°17' W 002°12'0 0.0
2018-Apr-23 21:58N 47°17' W 002°12'0 0.0
2018-Apr-23 21:28N 47°17' W 002°12'0 0.0
2018-Apr-23 20:58N 47°17' W 002°12'0 0.0
2018-Apr-23 20:28N 47°17' W 002°12'0 0.0
2018-Apr-23 19:58N 47°17' W 002°12'0 0.0
2018-Apr-23 19:28N 47°17' W 002°12'0 0.0
2018-Apr-23 18:58N 47°17' W 002°12'0 0.0
2018-Apr-23 18:22N 47°17' W 002°12'0 0.0
2018-Apr-23 17:58N 47°17' W 002°12'0 0.0
2018-Apr-23 17:25N 47°17' W 002°12'0 0.0
2018-Apr-23 16:52N 47°17' W 002°12'0 0.0
2018-Apr-23 16:28N 47°17' W 002°12'0 0.0
2018-Apr-23 15:55N 47°17' W 002°12'0 0.0
2018-Apr-23 15:22N 47°17' W 002°12'0 0.0
2018-Apr-23 14:52N 47°17' W 002°12'0 0.0
2018-Apr-23 14:27N 47°17' W 002°12'0 0.0
2018-Apr-23 13:57N 47°17' W 002°12'0 0.0
2018-Apr-23 13:24N 47°17' W 002°12'0 0.0
2018-Apr-23 12:57N 47°17' W 002°12'0 0.0
2018-Apr-23 12:30N 47°17' W 002°12'0 0.0
2018-Apr-23 12:00N 47°17' W 002°12'0 0.0
2018-Apr-23 11:27N 47°17' W 002°12'0 0.0
2018-Apr-23 10:20N 47°17' W 002°12'0 1.1
2018-Apr-23 09:56N 47°17' W 002°12'0 0.7
2018-Apr-23 09:30N 47°16' W 002°12'1 2.1
2018-Apr-23 09:00N 47°15' W 002°13'4 8.3
2018-Apr-23 08:30N 47°12' W 002°17'5 9.2
2018-Apr-23 08:00N 47°08' W 002°21'3 6.9
2018-Apr-23 07:30N 47°07' W 002°25'0 0.0
2018-Apr-23 06:58N 47°07' W 002°25'0 0.0
2018-Apr-23 06:28N 47°07' W 002°25'0 0.1
2018-Apr-23 05:58N 47°07' W 002°25'0 0.0
2018-Apr-23 05:28N 47°07' W 002°25'0 0.0
2018-Apr-23 04:58N 47°07' W 002°25'0 0.1
2018-Apr-23 04:28N 47°07' W 002°25'0 0.1
2018-Apr-23 03:58N 47°07' W 002°25'0 0.0
2018-Apr-23 03:28N 47°07' W 002°26'0 0.0
2018-Apr-23 02:58N 47°07' W 002°26'0 0.0
2018-Apr-23 02:28N 47°07' W 002°25'0 0.0
2018-Apr-23 01:58N 47°07' W 002°25'0 0.0
2018-Apr-23 01:28N 47°07' W 002°25'0 0.1
2018-Apr-23 01:00N 47°07' W 002°25'2 3.0
2018-Apr-23 00:30N 47°06' W 002°27'4 7.4
2018-Apr-23 00:00N 47°05' W 002°32'4 7.6
2018-Apr-22 23:30N 47°03' W 002°37'4 7.4
2018-Apr-22 23:00N 47°03' W 002°43'4 8.0
2018-Apr-22 22:30N 47°05' W 002°48'4 8.3
2018-Apr-22 22:00N 47°07' W 002°54'4 8.6
2018-Apr-22 21:30N 47°09' W 002°59'4 8.6
2018-Apr-22 21:00N 47°10' W 003°05'3 7.0
2018-Apr-22 20:30N 47°12' W 003°10'3 6.2
2018-Apr-22 20:00N 47°13' W 003°14'3 5.9
2018-Apr-22 19:30N 47°14' W 003°18'3 5.7
2018-Apr-22 19:00N 47°16' W 003°21'3 5.7
2018-Apr-22 18:30N 47°18' W 003°25'3 6.1
2018-Apr-22 18:00N 47°19' W 003°29'4 8.3
2018-Apr-22 17:30N 47°21' W 003°34'4 8.6
2018-Apr-22 17:00N 47°24' W 003°39'4 8.6
2018-Apr-22 16:30N 47°26' W 003°45'4 8.5
2018-Apr-22 16:00N 47°28' W 003°50'4 8.7
2018-Apr-22 15:30N 47°30' W 003°55'4 8.4
2018-Apr-22 15:00N 47°33' W 004°01'4 8.2
2018-Apr-22 14:30N 47°35' W 004°06'4 8.1
2018-Apr-22 14:00N 47°37' W 004°11'5 8.3
2018-Apr-22 13:24N 47°40' W 004°17'3 8.2
2018-Apr-22 13:00N 47°42' W 004°21'4 7.8
2018-Apr-22 12:27N 47°44' W 004°27'3 7.5
2018-Apr-22 12:00N 47°45' W 004°31'4 7.7
2018-Apr-22 11:30N 47°48' W 004°36'4 8.3
2018-Apr-22 11:00N 47°50' W 004°41'4 8.6
2018-Apr-22 10:30N 47°52' W 004°46'4 8.9
2018-Apr-22 10:00N 47°54' W 004°52'4 9.0
2018-Apr-22 09:30N 47°57' W 004°58'4 8.9
2018-Apr-22 09:00N 47°59' W 005°03'4 8.5
2018-Apr-22 08:30N 48°02' W 005°08'4 7.8
2018-Apr-22 08:00N 48°04' W 005°12'5 7.6
2018-Apr-22 07:22N 48°09' W 005°15'5 7.4
2018-Apr-22 06:40N 48°14' W 005°17'1 8.0
2018-Apr-22 06:29N 48°15' W 005°18'18 7.3
2018-Apr-22 04:03N 48°33' W 005°22'0 8.9
2018-Apr-22 04:00N 48°33' W 005°22'4 9.1
2018-Apr-22 03:30N 48°37' W 005°17'5 9.2
2018-Apr-22 02:59N 48°40' W 005°12'5 9.3
2018-Apr-22 02:30N 48°43' W 005°08'5 9.6
2018-Apr-22 02:00N 48°46' W 005°02'5 9.7
2018-Apr-22 01:30N 48°49' W 004°56'15 9.5
2018-Apr-21 23:56N 48°59' W 004°39'22 7.8
2018-Apr-21 21:03N 49°13' W 004°12'1 6.9
2018-Apr-21 20:56N 49°14' W 004°11'39 8.1
2018-Apr-21 16:07N 49°40' W 003°27'1 9.8
2018-Apr-21 16:00N 49°41' W 003°26'5 9.8
2018-Apr-21 15:30N 49°44' W 003°20'5 9.7
2018-Apr-21 14:59N 49°47' W 003°14'5 9.4
2018-Apr-21 14:30N 49°50' W 003°08'5 9.0
2018-Apr-21 14:00N 49°52' W 003°03'4 8.6
2018-Apr-21 13:30N 49°55' W 002°58'4 7.7
2018-Apr-21 13:00N 49°57' W 002°53'4 7.5
2018-Apr-21 12:29N 49°58' W 002°47'3 7.0
2018-Apr-21 12:00N 49°59' W 002°42'3 6.7
2018-Apr-21 11:30N 50°00' W 002°37'5 6.5
2018-Apr-21 10:46N 50°02' W 002°30'2 6.4
2018-Apr-21 10:30N 50°02' W 002°27'4 6.5
2018-Apr-21 09:57N 50°03' W 002°22'3 6.8
2018-Apr-21 09:30N 50°04' W 002°17'4 7.4
2018-Apr-21 08:59N 50°05' W 002°12'8 8.5
2018-Apr-21 08:02N 50°08' W 001°60'0 9.4
2018-Apr-21 08:00N 50°08' W 001°59'5 9.8
2018-Apr-21 07:30N 50°09' W 001°52'510.6
2018-Apr-21 07:00N 50°11' W 001°44'611.2
2018-Apr-21 06:30N 50°13' W 001°36'611.6
2018-Apr-21 06:00N 50°14' W 001°27'611.8
2018-Apr-21 05:30N 50°16' W 001°19'611.9
2018-Apr-21 04:59N 50°18' W 001°09'611.9
2018-Apr-21 04:30N 50°19' W 001°01'611.3
2018-Apr-21 04:01N 50°21' W 000°52'510.1
2018-Apr-21 03:30N 50°23' W 000°45'5 9.4
2018-Apr-21 03:00N 50°24' W 000°38'5 9.0
2018-Apr-21 02:30N 50°26' W 000°31'4 8.5
2018-Apr-21 02:00N 50°27' W 000°25'4 7.9
2018-Apr-21 01:30N 50°29' W 000°19'4 7.2
2018-Apr-21 01:00N 50°29' W 000°13'3 6.9
2018-Apr-21 00:30N 50°30' W 000°08'3 6.5
2018-Apr-21 00:00N 50°31' W 000°03'3 6.5
2018-Apr-20 23:30N 50°32' E 000°01'3 6.6
2018-Apr-20 23:00N 50°33' E 000°06'4 7.0
2018-Apr-20 22:30N 50°34' E 000°12'4 7.6
2018-Apr-20 22:00N 50°35' E 000°17'4 8.2
2018-Apr-20 21:30N 50°36' E 000°24'5 9.1
2018-Apr-20 21:00N 50°38' E 000°31'5 9.5
2018-Apr-20 20:30N 50°40' E 000°37'5 9.9
2018-Apr-20 20:00N 50°43' E 000°44'5 9.9
2018-Apr-20 19:30N 50°46' E 000°50'5 9.7
2018-Apr-20 19:00N 50°49' E 000°56'5 9.3
2018-Apr-20 18:30N 50°51' E 001°02'4 8.9
2018-Apr-20 18:00N 50°54' E 001°08'4 8.4
2018-Apr-20 17:30N 50°57' E 001°13'4 7.8
2018-Apr-20 17:00N 50°59' E 001°18'4 7.0
2018-Apr-20 16:30N 51°02' E 001°22'3 6.4
2018-Apr-20 16:00N 51°04' E 001°26'3 6.1
2018-Apr-20 15:30N 51°06' E 001°29'3 5.8
2018-Apr-20 15:00N 51°07' E 001°33'3 6.2
2018-Apr-20 14:30N 51°09' E 001°37'3 6.8
2018-Apr-20 14:00N 51°12' E 001°41'4 7.3
2018-Apr-20 13:30N 51°14' E 001°45'5 9.3
2018-Apr-20 13:00N 51°18' E 001°48'510.4
2018-Apr-20 12:30N 51°23' E 001°51'611.2
2018-Apr-20 12:00N 51°28' E 001°56'611.6
2018-Apr-20 11:30N 51°32' E 002°03'611.4
2018-Apr-20 11:00N 51°36' E 002°09'611.6
2018-Apr-20 10:30N 51°40' E 002°16'611.2
2018-Apr-20 10:00N 51°44' E 002°22'510.6
2018-Apr-20 09:30N 51°48' E 002°28'510.1
2018-Apr-20 08:59N 51°52' E 002°34'5 9.4
2018-Apr-20 08:29N 51°56' E 002°39'4 8.9
2018-Apr-20 08:00N 51°59' E 002°43'4 8.5
2018-Apr-20 07:29N 52°02' E 002°48'4 8.2
2018-Apr-20 06:56N 52°05' E 002°53'3 7.9
2018-Apr-20 06:30N 52°08' E 002°57'14 7.1
2018-Apr-20 04:32N 52°15' E 003°16'1 7.2
2018-Apr-20 04:26N 52°16' E 003°17'8 7.4
2018-Apr-20 03:18N 52°19' E 003°30'3 8.1
2018-Apr-20 02:58N 52°20' E 003°34'4 8.6
2018-Apr-20 02:30N 52°21' E 003°40'4 9.1
2018-Apr-20 02:00N 52°23' E 003°47'4 8.9
2018-Apr-20 01:30N 52°24' E 003°54'5 9.3
2018-Apr-20 01:00N 52°25' E 004°02'5 9.5
2018-Apr-20 00:30N 52°26' E 004°09'5 9.4
2018-Apr-20 00:00N 52°27' E 004°16'4 8.8
2018-Apr-19 23:30N 52°27' E 004°24'4 8.8
2018-Apr-19 23:00N 52°28' E 004°31'3 6.9
2018-Apr-19 22:30N 52°28' E 004°36'0 0.0
2018-Apr-19 22:00N 52°28' E 004°36'0 0.0
2018-Apr-19 21:30N 52°28' E 004°36'0 0.0
2018-Apr-19 21:00N 52°28' E 004°36'0 0.0
2018-Apr-19 20:30N 52°28' E 004°36'0 0.0
2018-Apr-19 20:00N 52°28' E 004°36'0 0.0
2018-Apr-19 19:30N 52°28' E 004°36'0 0.0
2018-Apr-19 19:00N 52°28' E 004°36'0 0.0
2018-Apr-19 18:30N 52°28' E 004°36'0 0.0
2018-Apr-19 17:30N 52°28' E 004°36'0 0.0
2018-Apr-19 17:00N 52°28' E 004°36'0 0.0
2018-Apr-19 16:30N 52°28' E 004°36'0 0.0
2018-Apr-19 15:59N 52°28' E 004°36'0 0.0
2018-Apr-19 15:30N 52°28' E 004°36'0 0.0
2018-Apr-19 15:00N 52°28' E 004°36'0 0.0
2018-Apr-19 14:30N 52°28' E 004°36'0 0.0
2018-Apr-19 14:00N 52°28' E 004°36'0 0.0
2018-Apr-19 13:30N 52°28' E 004°36'0 0.0
2018-Apr-19 13:00N 52°28' E 004°36'0 0.0
2018-Apr-19 12:30N 52°28' E 004°36'0 0.0
2018-Apr-19 11:30N 52°28' E 004°36'0 0.0
2018-Apr-19 11:00N 52°28' E 004°36'0 0.0
2018-Apr-19 10:30N 52°28' E 004°36'0 0.0
2018-Apr-19 10:00N 52°28' E 004°36'0 0.0
2018-Apr-19 09:30N 52°28' E 004°36'0 0.0
2018-Apr-19 09:00N 52°28' E 004°36'0 0.0
2018-Apr-19 08:30N 52°28' E 004°36'0 0.0
2018-Apr-19 08:00N 52°28' E 004°36'0 0.0
2018-Apr-19 07:30N 52°28' E 004°36'0 0.0
2018-Apr-19 07:00N 52°28' E 004°36'0 0.0
2018-Apr-19 06:30N 52°28' E 004°36'0 0.0
2018-Apr-19 06:00N 52°28' E 004°36'0 0.0
2018-Apr-19 05:30N 52°28' E 004°36'0 0.0
2018-Apr-19 05:00N 52°28' E 004°36'0 0.0
2018-Apr-19 04:30N 52°28' E 004°36'0 0.0
2018-Apr-19 04:00N 52°28' E 004°36'0 0.0
2018-Apr-19 03:30N 52°28' E 004°36'0 0.0
2018-Apr-19 03:00N 52°28' E 004°36'1 2.0
2018-Apr-19 02:30N 52°28' E 004°35'510.0
2018-Apr-19 02:00N 52°28' E 004°27'4 8.3
2018-Apr-19 01:30N 52°28' E 004°20'3 6.4
2018-Apr-19 01:01N 52°27' E 004°15'3 6.0
2018-Apr-19 00:30N 52°27' E 004°10'3 5.9
2018-Apr-19 00:00N 52°26' E 004°05'3 5.7
2018-Apr-18 23:30N 52°25' E 004°01'3 5.6
2018-Apr-18 23:00N 52°24' E 003°56'3 5.7
2018-Apr-18 22:30N 52°24' E 003°52'4 7.7
2018-Apr-18 22:00N 52°23' E 003°46'5 9.4
2018-Apr-18 21:31N 52°20' E 003°40'5 9.4
2018-Apr-18 21:00N 52°16' E 003°36'5 9.6
2018-Apr-18 20:30N 52°12' E 003°32'610.1
2018-Apr-18 19:57N 52°07' E 003°27'510.3
2018-Apr-18 19:30N 52°02' E 003°24'611.1
2018-Apr-18 18:59N 51°57' E 003°23'611.2
2018-Apr-18 18:29N 51°51' E 003°20'611.6
2018-Apr-18 18:00N 51°46' E 003°17'510.4
2018-Apr-18 17:30N 51°41' E 003°19'612.0
2018-Apr-18 17:00N 51°36' E 003°24'612.5
2018-Apr-18 16:30N 51°30' E 003°28'611.8
2018-Apr-18 16:00N 51°26' E 003°35'5 9.6
2018-Apr-18 15:30N 51°25' E 003°42'5 9.4
2018-Apr-18 15:00N 51°23' E 003°49'3 6.6
2018-Apr-18 14:30N 51°23' E 003°54'4 8.2
2018-Apr-18 14:00N 51°27' E 003°57'4 9.0
2018-Apr-18 13:30N 51°25' E 004°03'4 7.8
2018-Apr-18 13:00N 51°23' E 004°09'4 7.6
2018-Apr-18 12:30N 51°21' E 004°14'4 8.7
2018-Apr-18 12:00N 51°18' E 004°18'4 7.4
2018-Apr-18 11:30N 51°14' E 004°21'3 6.3
2018-Apr-18 11:00N 51°11' E 004°20'4 9.0
2018-Apr-18 10:30N 51°07' E 004°18'1 2.2
2018-Apr-18 10:00N 51°06' E 004°19'0 0.0
2018-Apr-18 05:42N 51°06' E 004°19'0 0.0
2018-Apr-18 05:12N 51°06' E 004°19'0 0.0
2018-Apr-18 04:54N 51°06' E 004°19'0 0.0
2018-Apr-18 04:30N 51°06' E 004°19'0 0.0
2018-Apr-18 04:00N 51°06' E 004°19'0 0.0
2018-Apr-18 03:27N 51°06' E 004°19'0 0.0
2018-Apr-18 02:57N 51°06' E 004°19'0 0.0
2018-Apr-18 02:30N 51°06' E 004°19'0 0.0
2018-Apr-18 01:57N 51°06' E 004°19'0 0.0
2018-Apr-18 01:29N 51°06' E 004°19'0 0.0
2018-Apr-18 00:47N 51°06' E 004°19'0 0.0
2018-Apr-18 00:29N 51°06' E 004°19'0 0.0
2018-Apr-17 23:44N 51°06' E 004°19'0 0.0
2018-Apr-17 23:26N 51°06' E 004°19'0 0.0
2018-Apr-17 22:59N 51°06' E 004°19'0 0.0
2018-Apr-17 22:26N 51°06' E 004°19'0 0.0
2018-Apr-17 21:59N 51°06' E 004°19'0 0.0
2018-Apr-17 21:29N 51°06' E 004°19'0 0.0
2018-Apr-17 20:59N 51°06' E 004°19'0 0.0
2018-Apr-17 20:26N 51°06' E 004°19'0 0.0
2018-Apr-17 19:50N 51°06' E 004°19'0 0.0
2018-Apr-17 19:11N 51°06' E 004°19'0 0.0
2018-Apr-17 18:59N 51°06' E 004°19'0 0.0
2018-Apr-17 18:26N 51°06' E 004°19'0 0.0
2018-Apr-17 17:47N 51°06' E 004°19'0 0.0
2018-Apr-17 17:26N 51°06' E 004°19'0 0.0
2018-Apr-17 16:59N 51°06' E 004°19'0 0.0
2018-Apr-17 16:23N 51°06' E 004°19'0 0.0
2018-Apr-17 15:59N 51°06' E 004°19'0 0.0
2018-Apr-17 15:14N 51°06' E 004°19'0 0.0
2018-Apr-17 14:56N 51°06' E 004°19'0 0.0
2018-Apr-17 14:26N 51°06' E 004°19'0 0.0
2018-Apr-17 13:56N 51°06' E 004°19'0 0.0
2018-Apr-17 13:20N 51°06' E 004°19'1 1.8
2018-Apr-17 13:00N 51°06' E 004°20'2 4.0
2018-Apr-17 12:30N 51°04' E 004°22'5 2.5
2018-Apr-17 10:40N 50°60' E 004°23'0 0.0
2018-Apr-16 01:51N 50°59' E 004°23'3 2.1
2018-Apr-16 00:39N 51°02' E 004°21'1 5.4
2018-Apr-16 00:30N 51°03' E 004°22'2 3.7
2018-Apr-16 00:00N 51°04' E 004°22'3 5.5
2018-Apr-15 23:30N 51°06' E 004°19'1 2.0
2018-Apr-15 23:00N 51°07' E 004°18'4 8.2
2018-Apr-15 22:30N 51°11' E 004°20'4 7.8
2018-Apr-15 22:00N 51°14' E 004°24'4 7.4
2018-Apr-15 21:31N 51°15' E 004°18'3 6.1
2018-Apr-15 21:00N 51°18' E 004°17'4 7.5
2018-Apr-15 20:30N 51°21' E 004°14'3 5.9
2018-Apr-15 20:00N 51°23' E 004°10'3 6.5
2018-Apr-15 19:30N 51°22' E 004°06'3 5.9
2018-Apr-15 19:00N 51°24' E 004°02'3 5.6
2018-Apr-15 18:30N 51°26' E 003°59'4 7.0
2018-Apr-15 18:00N 51°23' E 003°57'3 5.9
2018-Apr-15 17:30N 51°21' E 003°53'3 5.6
2018-Apr-15 17:00N 51°21' E 003°48'3 6.0
2018-Apr-15 16:30N 51°22' E 003°44'3 6.5
2018-Apr-15 16:00N 51°25' E 003°41'3 6.7
2018-Apr-15 15:30N 51°25' E 003°35'4 7.9
2018-Apr-15 15:00N 51°25' E 003°29'5 9.5
2018-Apr-15 14:30N 51°24' E 003°21'5 9.9
2018-Apr-15 14:00N 51°24' E 003°13'510.3
2018-Apr-15 13:30N 51°24' E 003°05'510.9
2018-Apr-15 13:00N 51°23' E 002°57'611.2
2018-Apr-15 12:30N 51°22' E 002°48'510.0
2018-Apr-15 12:00N 51°22' E 002°40'610.8
2018-Apr-15 11:29N 51°22' E 002°31'511.0
2018-Apr-15 11:00N 51°20' E 002°23'510.8
2018-Apr-15 10:30N 51°17' E 002°16'510.4
2018-Apr-15 10:01N 51°14' E 002°09'5 9.9
2018-Apr-15 09:30N 51°12' E 002°02'5 9.1
2018-Apr-15 09:00N 51°09' E 001°56'4 8.3
2018-Apr-15 08:30N 51°07' E 001°50'4 7.6
2018-Apr-15 08:00N 51°05' E 001°45'4 7.4
2018-Apr-15 07:30N 51°02' E 001°41'4 7.0
2018-Apr-15 06:59N 50°59' E 001°38'38 7.4
2018-Apr-15 01:52N 50°31' E 000°58'4 8.6
2018-Apr-15 01:22N 50°30' E 000°51'4 8.5
2018-Apr-15 00:51N 50°29' E 000°45'16 8.6
2018-Apr-14 23:01N 50°25' E 000°21'0 8.8
2018-Apr-14 23:00N 50°25' E 000°20'5 9.2
2018-Apr-14 22:30N 50°23' E 000°13'5 9.7
2018-Apr-14 21:57N 50°22' E 000°05'4 9.9
2018-Apr-14 21:30N 50°21' W 000°01'710.7
2018-Apr-14 20:50N 50°18' W 000°12'411.2
2018-Apr-14 20:29N 50°17' W 000°18'511.6
2018-Apr-14 20:00N 50°16' W 000°26'611.8
2018-Apr-14 19:30N 50°14' W 000°35'611.7
2018-Apr-14 19:00N 50°12' W 000°44'611.7
2018-Apr-14 18:30N 50°10' W 000°52'611.2
2018-Apr-14 17:58N 50°08' W 001°01'510.8
2018-Apr-14 17:30N 50°07' W 001°09'510.2
2018-Apr-14 17:00N 50°06' W 001°16'5 9.5
2018-Apr-14 16:30N 50°04' W 001°23'4 8.7
2018-Apr-14 16:00N 50°03' W 001°30'  

Dump ship's entire track history